Time;durP1;ratioP1;P1;durP2;ratioP2;P2;SDS_P1;SDS_P2;PMS_P1;PMS_P2;Temp;Humidity;BMP_temperature;BMP_pressure;BME280_temperature;BME280_humidity;BME280_pressure;Samples;Min_cycle;Max_cycle;Signal;HPM_P1;HPM_P2
2022/01/10 00:00:15;;;;;;;14.17;7.53;;;;;;;4.19;100.00;100335.28;5059244;28;20333;-52
2022/01/10 00:02:42;;;;;;;9.53;7.30;;;;;;;4.13;100.00;100344.69;5055994;28;20293;-52
2022/01/10 00:05:09;;;;;;;11.03;7.03;;;;;;;4.11;100.00;100347.28;5048242;28;20268;-51
2022/01/10 00:07:35;;;;;;;11.53;8.23;;;;;;;4.06;100.00;100351.47;5060942;28;20265;-51
2022/01/10 00:10:02;;;;;;;12.07;7.67;;;;;;;4.13;100.00;100361.16;5054099;28;20231;-55
2022/01/10 00:12:29;;;;;;;12.37;8.60;;;;;;;4.14;100.00;100362.91;5043870;28;20227;-52
2022/01/10 00:14:55;;;;;;;17.03;7.97;;;;;;;4.09;100.00;100369.72;5048152;28;20248;-53
2022/01/10 00:17:23;;;;;;;15.83;7.07;;;;;;;4.16;100.00;100376.78;5060303;28;20392;-53
2022/01/10 00:19:49;;;;;;;14.37;7.87;;;;;;;4.20;100.00;100376.00;5060783;28;20631;-53
2022/01/10 00:22:15;;;;;;;14.87;7.13;;;;;;;4.26;100.00;100381.31;5060779;28;20235;-52
2022/01/10 00:24:42;;;;;;;16.60;7.10;;;;;;;4.16;100.00;100389.78;5050670;28;20258;-54
2022/01/10 00:27:08;;;;;;;13.00;7.37;;;;;;;4.29;100.00;100394.38;5059884;28;20235;-54
2022/01/10 00:29:35;;;;;;;11.67;7.00;;;;;;;4.27;100.00;100396.06;5062380;28;20625;-53
2022/01/10 00:32:01;;;;;;;7.90;6.63;;;;;;;4.13;100.00;100405.31;5062845;28;20262;-53
2022/01/10 00:34:29;;;;;;;13.30;7.13;;;;;;;4.19;100.00;100404.56;5049830;28;20234;-52
2022/01/10 00:36:56;;;;;;;18.27;8.70;;;;;;;4.03;100.00;100408.56;5050667;28;20969;-52
2022/01/10 00:39:22;;;;;;;9.43;7.10;;;;;;;4.09;100.00;100413.91;5056837;28;20708;-52
2022/01/10 00:41:49;;;;;;;13.07;7.33;;;;;;;4.16;100.00;100407.97;5062980;28;20228;-53
2022/01/10 00:44:15;;;;;;;9.20;6.87;;;;;;;4.10;100.00;100418.22;5060375;28;20230;-52
2022/01/10 00:46:42;;;;;;;10.90;7.27;;;;;;;4.15;100.00;100421.81;5061129;28;20233;-51
2022/01/10 00:49:08;;;;;;;9.63;7.47;;;;;;;4.16;100.00;100422.69;5058114;28;20231;-53
2022/01/10 00:51:36;;;;;;;9.90;8.03;;;;;;;4.12;100.00;100431.28;5045638;28;20311;-53
2022/01/10 00:54:02;;;;;;;10.43;7.90;;;;;;;4.17;100.00;100433.09;5062105;28;20793;-54
2022/01/10 00:56:28;;;;;;;13.17;7.63;;;;;;;4.06;100.00;100434.63;5040033;28;20951;-52
2022/01/10 00:58:55;;;;;;;10.20;7.43;;;;;;;4.16;100.00;100439.16;5060550;28;20317;-53
2022/01/10 01:01:21;;;;;;;13.53;7.40;;;;;;;4.23;100.00;100441.03;5057131;28;20265;-52
2022/01/10 01:03:47;;;;;;;12.30;6.83;;;;;;;4.15;100.00;100447.81;5057243;28;20250;-51
2022/01/10 01:06:15;;;;;;;10.53;7.23;;;;;;;4.13;100.00;100449.47;5062338;28;20251;-55
2022/01/10 01:08:43;;;;;;;12.30;7.10;;;;;;;4.15;100.00;100455.59;5069168;28;20732;-51
2022/01/10 01:13:59;;;;;;;11.10;7.40;;;;;;;4.22;100.00;100465.25;5061272;28;20318;-51
2022/01/10 01:16:44;;;;;;;12.33;7.60;;;;;;;4.21;100.00;100470.41;5059915;28;20258;-52
2022/01/10 01:24:47;;;;;;;13.27;7.73;;;;;;;4.14;100.00;100482.44;5056552;28;20284;-52
2022/01/10 01:27:13;;;;;;;13.83;8.63;;;;;;;4.15;100.00;100489.38;5046731;28;20763;-51
2022/01/10 01:29:40;;;;;;;13.87;7.53;;;;;;;4.19;100.00;100496.38;5059561;28;20232;-53
2022/01/10 01:32:07;;;;;;;10.77;7.07;;;;;;;4.23;100.00;100502.50;5045733;28;20270;-52
2022/01/10 01:34:35;;;;;;;13.07;8.27;;;;;;;4.20;100.00;100505.91;5042672;28;20786;-52
2022/01/10 01:37:01;;;;;;;9.60;6.97;;;;;;;4.16;100.00;100511.03;5039643;28;20289;-52
2022/01/10 01:39:30;;;;;;;11.10;8.20;;;;;;;4.17;100.00;100518.84;5046934;28;20232;-52
2022/01/10 01:42:03;;;;;;;21.63;7.77;;;;;;;4.21;100.00;100517.19;5053600;28;21747;-55
2022/01/10 01:44:30;;;;;;;11.73;6.70;;;;;;;4.22;100.00;100530.22;5064253;28;20759;-53
2022/01/10 01:46:56;;;;;;;14.27;8.20;;;;;;;4.19;100.00;100532.75;5041209;28;20263;-52
2022/01/10 01:49:22;;;;;;;14.70;7.00;;;;;;;4.27;100.00;100541.56;5047147;28;20251;-51
2022/01/10 01:51:49;;;;;;;13.10;8.03;;;;;;;4.16;100.00;100543.06;5056780;28;20306;-51
2022/01/10 01:54:17;;;;;;;12.27;6.67;;;;;;;4.14;100.00;100549.06;5047744;28;20264;-51
2022/01/10 01:56:43;;;;;;;10.47;6.80;;;;;;;4.13;100.00;100552.53;5045655;28;20614;-50
2022/01/10 01:59:12;;;;;;;7.97;6.30;;;;;;;4.18;100.00;100561.31;5050294;28;20223;-52
2022/01/10 02:01:38;;;;;;;16.87;7.47;;;;;;;4.10;100.00;100563.72;5048910;28;20234;-52
2022/01/10 02:04:05;;;;;;;10.20;6.90;;;;;;;4.12;100.00;100567.25;5056197;28;20223;-53
2022/01/10 02:06:31;;;;;;;8.97;6.90;;;;;;;4.13;100.00;100568.97;5053912;28;20264;-52
2022/01/10 02:08:58;;;;;;;8.40;6.57;;;;;;;4.23;100.00;100570.94;5044029;28;20738;-50
2022/01/10 02:11:24;;;;;;;12.27;6.73;;;;;;;4.27;100.00;100582.28;5058384;28;20722;-51
2022/01/10 02:13:51;;;;;;;9.53;7.10;;;;;;;4.25;100.00;100574.47;5061396;28;20235;-52
2022/01/10 02:16:22;;;;;;;15.03;7.37;;;;;;;4.29;100.00;100591.88;5050300;28;20232;-52
2022/01/10 02:18:49;;;;;;;9.27;6.30;;;;;;;4.33;100.00;100586.75;5060908;28;20253;-53
2022/01/10 02:21:17;;;;;;;14.83;7.10;;;;;;;4.20;100.00;100606.38;5050229;28;20241;-53
2022/01/10 02:23:44;;;;;;;11.03;6.60;;;;;;;4.23;100.00;100599.53;5047772;28;21404;-51
2022/01/10 02:26:10;;;;;;;10.07;6.47;;;;;;;4.14;100.00;100608.84;5041931;28;20309;-50
2022/01/10 02:28:37;;;;;;;11.70;7.80;;;;;;;4.22;100.00;100615.09;5054064;28;20252;-52
2022/01/10 02:31:04;;;;;;;16.47;7.80;;;;;;;4.32;100.00;100619.66;5057037;28;20263;-52
2022/01/10 02:33:32;;;;;;;10.73;7.20;;;;;;;4.31;100.00;100620.47;5056992;28;20246;-54
2022/01/10 02:36:07;;;;;;;10.53;6.33;;;;;;;4.27;100.00;100622.13;5049117;28;20654;-51
2022/01/10 02:38:35;;;;;;;7.67;5.90;;;;;;;4.17;100.00;100627.09;5054557;28;20237;-50
2022/01/10 02:41:02;;;;;;;14.27;6.53;;;;;;;4.22;100.00;100631.56;5062784;28;20294;-51
2022/01/10 02:43:28;;;;;;;6.83;5.73;;;;;;;4.22;100.00;100647.16;5059531;28;20235;-52
2022/01/10 02:45:56;;;;;;;17.27;6.40;;;;;;;4.25;100.00;100641.16;5055085;28;20231;-52
2022/01/10 02:48:23;;;;;;;12.00;6.73;;;;;;;4.31;100.00;100652.53;5061309;28;20254;-52
2022/01/10 02:50:49;;;;;;;14.13;6.47;;;;;;;4.25;100.00;100654.16;5061823;28;20243;-51
2022/01/10 02:53:16;;;;;;;7.73;5.87;;;;;;;4.28;100.00;100662.91;5056647;28;20223;-54
2022/01/10 02:55:44;;;;;;;11.27;6.27;;;;;;;4.25;100.00;100662.81;5059989;28;20269;-52
2022/01/10 02:58:10;;;;;;;15.23;6.87;;;;;;;4.24;100.00;100668.84;5058105;28;20271;-53
2022/01/10 03:00:36;;;;;;;7.93;5.60;;;;;;;4.24;100.00;100675.75;5057532;28;20315;-52
2022/01/10 03:03:06;;;;;;;15.87;6.47;;;;;;;4.30;100.00;100676.78;5059936;28;20235;-52
2022/01/10 03:05:33;;;;;;;10.50;6.43;;;;;;;4.27;100.00;100686.22;5056075;28;20243;-52
2022/01/10 03:08:02;;;;;;;11.67;6.07;;;;;;;4.23;100.00;100680.09;5058687;28;20255;-53
2022/01/10 03:10:28;;;;;;;7.43;5.73;;;;;;;4.20;100.00;100685.19;5061875;28;20227;-52
2022/01/10 03:12:57;;;;;;;12.27;6.47;;;;;;;4.24;100.00;100701.75;5060764;28;20250;-53
2022/01/10 03:15:23;;;;;;;10.43;6.10;;;;;;;4.22;100.00;100696.53;5061309;28;20704;-53
2022/01/10 03:17:49;;;;;;;10.77;5.80;;;;;;;4.27;100.00;100702.69;5060557;28;20261;-52
2022/01/10 03:20:16;;;;;;;14.27;6.13;;;;;;;4.31;100.00;100703.66;5063020;28;20250;-52
2022/01/10 03:22:42;;;;;;;12.30;6.90;;;;;;;4.33;100.00;100714.09;5062423;28;20745;-52
2022/01/10 03:25:09;;;;;;;13.37;7.20;;;;;;;4.30;100.00;100713.16;5060743;28;20763;-53
2022/01/10 03:27:36;;;;;;;13.37;6.87;;;;;;;4.31;100.00;100719.25;5062508;28;20338;-52
2022/01/10 03:30:05;;;;;;;10.73;5.47;;;;;;;4.33;100.00;100727.09;5048919;28;20267;-54
2022/01/10 03:32:32;;;;;;;10.20;6.10;;;;;;;4.27;100.00;100733.88;5037713;28;20259;-52
2022/01/10 03:34:58;;;;;;;12.00;5.73;;;;;;;4.21;100.00;100731.16;5040269;28;20243;-52
2022/01/10 03:37:25;;;;;;;9.03;6.73;;;;;;;4.24;100.00;100728.59;5060770;28;20231;-52
2022/01/10 03:39:51;;;;;;;18.33;7.13;;;;;;;4.19;100.00;100743.22;5046918;28;20620;-51
2022/01/10 03:42:17;;;;;;;10.77;7.27;;;;;;;4.28;100.00;100746.06;5059721;28;20231;-52
2022/01/10 03:44:44;;;;;;;9.17;6.17;;;;;;;4.36;100.00;100747.97;5056525;28;20265;-51
2022/01/10 03:47:12;;;;;;;11.37;7.33;;;;;;;4.36;100.00;100754.03;5062542;28;20281;-54
2022/01/10 03:49:38;;;;;;;11.13;6.70;;;;;;;4.26;100.00;100747.72;5054539;28;20281;-52
2022/01/10 03:52:05;;;;;;;8.53;6.60;;;;;;;4.31;100.00;100760.81;5050461;28;20248;-52
2022/01/10 03:54:31;;;;;;;13.60;6.17;;;;;;;4.28;100.00;100765.94;5060116;28;20316;-51
2022/01/10 03:56:59;;;;;;;11.53;6.70;;;;;;;4.20;100.00;100763.16;5059665;28;20231;-51
2022/01/10 03:59:25;;;;;;;8.97;6.10;;;;;;;4.11;100.00;100768.13;5050887;28;20228;-52
2022/01/10 04:01:52;;;;;;;13.07;7.97;;;;;;;4.13;100.00;100773.38;5043328;28;20231;-51
2022/01/10 04:04:20;;;;;;;12.60;7.67;;;;;;;4.15;100.00;100780.38;5062052;28;20267;-52
2022/01/10 04:06:46;;;;;;;11.13;6.60;;;;;;;4.17;100.00;100776.06;5053483;28;20320;-50
2022/01/10 04:09:13;;;;;;;11.53;6.43;;;;;;;4.22;100.00;100786.59;5059593;28;20278;-52
2022/01/10 04:11:39;;;;;;;8.60;6.50;;;;;;;4.18;100.00;100796.03;5060202;28;20235;-51
2022/01/10 04:14:05;;;;;;;11.43;7.27;;;;;;;4.17;100.00;100798.56;5058622;28;20400;-51
2022/01/10 04:16:32;;;;;;;11.30;7.93;;;;;;;4.05;100.00;100800.03;5035545;28;20248;-53
2022/01/10 04:18:58;;;;;;;12.43;6.93;;;;;;;4.09;100.00;100797.50;5060921;28;20708;-53
2022/01/10 04:21:26;;;;;;;15.23;7.67;;;;;;;4.08;100.00;100804.44;5051939;28;20239;-52
2022/01/10 04:23:52;;;;;;;9.60;6.73;;;;;;;4.12;100.00;100805.38;5056047;28;20251;-50
2022/01/10 04:26:18;;;;;;;12.27;7.20;;;;;;;4.17;100.00;100806.38;5056390;28;20293;-52
2022/01/10 04:28:45;;;;;;;12.53;7.47;;;;;;;4.13;100.00;100805.41;5046494;28;20323;-52
2022/01/10 04:31:12;;;;;;;12.93;6.27;;;;;;;4.26;100.00;100815.28;5041518;28;20278;-52
2022/01/10 04:33:38;;;;;;;13.00;7.00;;;;;;;4.22;100.00;100829.06;5062976;28;20330;-54
2022/01/10 04:36:05;;;;;;;13.47;6.97;;;;;;;4.14;100.00;100827.97;5058073;28;20227;-53
2022/01/10 04:38:32;;;;;;;19.80;8.97;;;;;;;4.24;100.00;100831.69;5042912;28;20235;-53
2022/01/10 04:40:59;;;;;;;11.03;6.63;;;;;;;4.19;100.00;100844.56;5059013;28;20240;-53
2022/01/10 04:43:25;;;;;;;11.10;7.17;;;;;;;4.18;100.00;100852.34;5054824;28;20267;-52
2022/01/10 04:45:51;;;;;;;13.30;6.47;;;;;;;4.21;100.00;100852.38;5035097;28;20259;-51
2022/01/10 04:48:18;;;;;;;17.27;7.40;;;;;;;4.16;100.00;100860.06;5057541;28;20258;-53
2022/01/10 04:53:29;;;;;;;8.40;7.23;;;;;;;4.18;100.00;100868.78;5060915;28;20244;-54
2022/01/10 04:55:56;;;;;;;12.73;7.37;;;;;;;4.14;100.00;100872.16;5066710;28;20296;-53
2022/01/10 04:58:23;;;;;;;14.17;6.67;;;;;;;4.20;100.00;100881.81;5066176;28;20262;-54
2022/01/10 05:00:51;;;;;;;8.73;6.07;;;;;;;4.15;100.00;100884.28;5065188;28;20228;-53
2022/01/10 05:03:17;;;;;;;8.37;5.83;;;;;;;4.19;100.00;100891.34;5061632;28;20325;-52
2022/01/10 05:05:44;;;;;;;14.23;6.63;;;;;;;4.17;100.00;100900.78;5064875;28;20235;-53
2022/01/10 05:08:10;;;;;;;12.97;7.37;;;;;;;4.23;100.00;100903.56;5055920;28;20259;-51
2022/01/10 05:10:36;;;;;;;12.63;7.80;;;;;;;4.20;100.00;100903.47;5043776;28;20239;-55
2022/01/10 05:13:04;;;;;;;13.37;7.07;;;;;;;4.15;100.00;100909.41;5042859;28;20284;-53
2022/01/10 05:15:30;;;;;;;19.80;7.20;;;;;;;4.13;100.00;100911.94;5060679;28;20299;-54
2022/01/10 05:17:57;;;;;;;13.67;7.67;;;;;;;4.14;100.00;100915.41;5052056;28;20258;-53
2022/01/10 05:20:23;;;;;;;8.10;6.50;;;;;;;4.26;100.00;100914.06;5036448;28;20317;-53
2022/01/10 05:22:49;;;;;;;14.17;7.10;;;;;;;4.18;100.00;100920.75;5043738;28;20305;-53
2022/01/10 05:25:16;;;;;;;12.73;7.07;;;;;;;4.16;100.00;100919.81;5060137;28;20305;-53
2022/01/10 05:27:42;;;;;;;9.87;6.67;;;;;;;4.16;100.00;100927.63;5063415;28;20300;-53
2022/01/10 05:30:11;;;;;;;14.00;6.37;;;;;;;4.19;100.00;100930.31;5037814;28;20277;-53
2022/01/10 05:32:37;;;;;;;13.53;7.87;;;;;;;4.23;100.00;100934.75;5039919;28;20244;-52
2022/01/10 05:35:04;;;;;;;12.13;7.30;;;;;;;4.17;100.00;100933.69;5056923;28;20293;-52
2022/01/10 05:37:31;;;;;;;11.30;7.37;;;;;;;4.10;100.00;100943.03;5057826;28;20309;-51
2022/01/10 05:39:57;;;;;;;11.43;7.43;;;;;;;4.11;100.00;100952.63;5059856;28;20239;-53
2022/01/10 05:42:23;;;;;;;14.13;7.30;;;;;;;4.10;100.00;100958.63;5051266;28;20932;-52
2022/01/10 05:44:50;;;;;;;11.03;7.00;;;;;;;4.16;100.00;100973.53;5063864;28;20785;-50
2022/01/10 05:47:19;;;;;;;10.27;6.43;;;;;;;4.14;100.00;100965.69;5056366;28;20253;-53
2022/01/10 05:49:47;;;;;;;10.07;7.00;;;;;;;4.10;100.00;100979.41;5055764;28;20241;-52
2022/01/10 05:52:14;;;;;;;11.93;6.47;;;;;;;4.10;100.00;100983.72;5056423;28;20288;-52
2022/01/10 05:54:40;;;;;;;9.00;6.73;;;;;;;4.11;100.00;100985.47;5042272;28;20255;-49
2022/01/10 05:57:07;;;;;;;14.70;7.80;;;;;;;4.16;100.00;100989.97;5054088;28;20239;-52
2022/01/10 05:59:33;;;;;;;15.07;7.17;;;;;;;4.24;100.00;100998.00;5058944;28;20735;-50
2022/01/10 06:01:59;;;;;;;13.27;6.53;;;;;;;4.28;100.00;101002.44;5060243;28;20715;-53
2022/01/10 06:04:30;;;;;;;11.23;6.70;;;;;;;4.24;100.00;101001.47;5058210;28;20293;-53
2022/01/10 06:06:57;;;;;;;13.60;7.50;;;;;;;4.20;100.00;101007.44;5047334;28;20224;-53
2022/01/10 06:09:23;;;;;;;17.20;7.70;;;;;;;4.23;100.00;101012.72;5046463;28;20240;-53
2022/01/10 06:11:49;;;;;;;11.93;7.33;;;;;;;4.30;100.00;101024.16;5060066;28;20697;-52
2022/01/10 06:14:16;;;;;;;13.47;6.97;;;;;;;4.20;100.00;101025.63;5056390;28;20327;-52
2022/01/10 06:16:42;;;;;;;11.13;5.93;;;;;;;4.13;100.00;101031.47;5052779;28;20312;-53
2022/01/10 06:19:08;;;;;;;9.33;6.43;;;;;;;4.09;100.00;101034.81;5061305;28;20239;-54
2022/01/10 06:21:36;;;;;;;11.50;7.23;;;;;;;4.12;100.00;101034.03;5056696;28;20646;-51
2022/01/10 06:24:02;;;;;;;12.83;7.07;;;;;;;4.16;100.00;101047.16;5042038;28;20289;-54
2022/01/10 06:26:29;;;;;;;20.60;8.10;;;;;;;4.17;100.00;101046.31;5052942;28;20259;-52
2022/01/10 06:28:55;;;;;;;8.73;6.13;;;;;;;4.17;100.00;101054.09;5061313;28;20235;-53
2022/01/10 06:31:21;;;;;;;8.53;5.50;;;;;;;4.16;100.00;101051.47;5057302;28;20888;-52
2022/01/10 06:33:48;;;;;;;8.53;5.93;;;;;;;4.15;100.00;101066.19;5059141;28;20228;-53
2022/01/10 06:36:14;;;;;;;12.37;6.90;;;;;;;4.15;100.00;101063.59;5059717;28;20267;-54
2022/01/10 06:38:42;;;;;;;14.27;7.07;;;;;;;4.13;100.00;101073.03;5042961;28;20239;-52
2022/01/10 06:41:08;;;;;;;12.60;7.27;;;;;;;4.10;100.00;101079.84;5060842;28;20236;-52
2022/01/10 06:43:37;;;;;;;13.63;6.83;;;;;;;4.20;100.00;101090.56;5060663;28;20252;-58
2022/01/10 06:46:03;;;;;;;9.93;6.77;;;;;;;4.25;100.00;101094.22;5041013;28;20239;-53
2022/01/10 06:48:30;;;;;;;10.53;6.33;;;;;;;4.19;100.00;101087.94;5062018;28;20809;-52
2022/01/10 06:50:56;;;;;;;10.70;6.20;;;;;;;4.22;100.00;101094.13;5064568;28;20293;-52
2022/01/10 06:53:23;;;;;;;17.50;6.77;;;;;;;4.22;100.00;101109.72;5063021;28;20304;-53
2022/01/10 06:55:52;;;;;;;11.53;6.57;;;;;;;4.28;100.00;101114.19;5061604;28;20293;-53
2022/01/10 06:58:19;;;;;;;13.23;7.33;;;;;;;4.60;100.00;101133.38;5060009;28;20311;-53
2022/01/10 07:00:46;;;;;;;10.27;6.37;;;;;;;4.61;100.00;101135.16;5044880;28;20297;-52
2022/01/10 07:03:12;;;;;;;10.67;6.57;;;;;;;4.52;100.00;101134.84;5060803;28;20336;-52
2022/01/10 07:05:38;;;;;;;9.47;5.70;;;;;;;4.46;100.00;101139.91;5043587;28;20255;-54
2022/01/10 07:08:05;;;;;;;12.87;6.13;;;;;;;4.44;100.00;101145.03;5047456;28;20254;-51
2022/01/10 07:10:31;;;;;;;9.93;5.83;;;;;;;4.41;100.00;101152.72;5060425;28;20247;-52
2022/01/10 07:12:59;;;;;;;7.63;5.80;;;;;;;4.39;100.00;101169.09;5060787;28;20319;-52
2022/01/10 07:15:26;;;;;;;10.40;5.53;;;;;;;4.42;100.00;101174.41;5060300;28;20243;-53
2022/01/10 07:17:53;;;;;;;10.00;6.80;;;;;;;4.42;100.00;101184.81;5064050;28;20258;-54
2022/01/10 07:20:20;;;;;;;10.83;5.93;;;;;;;4.38;100.00;101190.75;5063071;28;20231;-49
2022/01/10 07:22:47;;;;;;;11.53;6.93;;;;;;;4.42;100.00;101190.00;5062555;28;20227;-51
2022/01/10 07:25:13;;;;;;;10.87;6.73;;;;;;;4.40;100.00;101194.28;5058838;28;20261;-52
2022/01/10 07:27:40;;;;;;;17.20;6.77;;;;;;;4.43;100.00;101197.88;5060865;28;20241;-53
2022/01/10 07:30:09;;;;;;;9.73;6.63;;;;;;;4.41;100.00;101204.72;5055403;28;20801;-52
2022/01/10 07:32:35;;;;;;;10.90;6.23;;;;;;;4.44;100.00;101215.22;5058438;28;20281;-53
2022/01/10 07:35:01;;;;;;;13.63;7.67;;;;;;;4.41;100.00;101227.25;5057601;28;20912;-53
2022/01/10 07:37:28;;;;;;;15.07;8.20;;;;;;;4.40;100.00;101230.69;5059908;28;20235;-53
2022/01/10 07:39:54;;;;;;;12.10;8.20;;;;;;;4.52;100.00;101239.75;5061226;28;20300;-52
2022/01/10 07:42:20;;;;;;;12.10;7.00;;;;;;;4.43;100.00;101243.78;5058022;28;20263;-52
2022/01/10 07:44:47;;;;;;;11.43;8.10;;;;;;;4.40;100.00;101243.69;5039238;28;20240;-51
2022/01/10 07:47:14;;;;;;;10.60;7.13;;;;;;;4.30;100.00;101253.78;5054151;28;20766;-52
2022/01/10 07:49:41;;;;;;;15.53;7.87;;;;;;;4.26;100.00;101256.22;5060215;28;20234;-51
2022/01/10 07:52:08;;;;;;;19.93;8.97;;;;;;;4.25;100.00;101257.94;5055765;28;20233;-54
2022/01/10 07:54:34;;;;;;;19.73;9.63;;;;;;;4.28;100.00;101263.25;5048248;28;20263;-53
2022/01/10 07:57:01;;;;;;;10.87;7.37;;;;;;;4.28;100.00;101265.84;5057478;28;20231;-52
2022/01/10 07:59:27;;;;;;;14.00;8.37;;;;;;;4.33;100.00;101278.13;5057511;28;20239;-53
2022/01/10 08:01:54;;;;;;;11.50;7.90;;;;;;;4.41;100.00;101290.50;5066476;28;20289;-52
2022/01/10 08:04:21;;;;;;;14.90;8.07;;;;;;;4.32;100.00;101292.84;5059441;28;20285;-54
2022/01/10 08:06:48;;;;;;;13.57;7.63;;;;;;;4.36;100.00;101299.00;5063010;28;20326;-54
2022/01/10 08:09:14;;;;;;;11.93;8.03;;;;;;;4.36;100.00;101305.09;5060771;28;20669;-52
2022/01/10 08:11:40;;;;;;;15.83;7.13;;;;;;;4.40;100.00;101300.88;5062245;28;20851;-51
2022/01/10 08:14:07;;;;;;;13.97;7.17;;;;;;;4.45;100.00;101310.56;5064820;28;20255;-53
2022/01/10 08:16:33;;;;;;;15.07;7.50;;;;;;;4.32;100.00;101318.81;5061141;28;20713;-53
2022/01/10 08:18:59;;;;;;;13.50;7.47;;;;;;;4.26;100.00;101329.00;5053847;28;20228;-52
2022/01/10 08:21:27;;;;;;;12.87;7.57;;;;;;;4.24;100.00;101335.84;5051661;28;20827;-53
2022/01/10 08:23:53;;;;;;;13.43;7.80;;;;;;;4.28;100.00;101343.81;5057454;28;20233;-54
2022/01/10 08:26:21;;;;;;;15.20;8.40;;;;;;;4.30;100.00;101344.75;5058400;28;20731;-52
2022/01/10 08:28:47;;;;;;;13.17;8.23;;;;;;;4.34;100.00;101345.75;5042088;28;20244;-52
2022/01/10 08:31:13;;;;;;;14.23;7.13;;;;;;;4.33;100.00;101345.69;5044985;28;20814;-52
2022/01/10 08:33:41;;;;;;;13.77;7.70;;;;;;;4.36;100.00;101356.22;5063330;28;20235;-53
2022/01/10 08:36:08;;;;;;;18.73;8.43;;;;;;;4.36;100.00;101356.22;5042755;28;20343;-53
2022/01/10 08:38:36;;;;;;;19.97;8.83;;;;;;;4.33;100.00;101358.69;5046284;28;20963;-53
2022/01/10 08:41:02;;;;;;;14.97;7.40;;;;;;;4.40;100.00;101355.47;5058932;28;20296;-53
2022/01/10 08:43:28;;;;;;;11.07;7.77;;;;;;;4.44;100.00;101365.13;5059386;28;20236;-52
2022/01/10 08:45:55;;;;;;;17.77;9.03;;;;;;;4.47;100.00;101373.94;5045585;28;20309;-54
2022/01/10 08:48:21;;;;;;;12.57;7.80;;;;;;;4.54;100.00;101382.81;5037648;28;20305;-53
2022/01/10 08:50:47;;;;;;;11.27;8.80;;;;;;;4.54;100.00;101382.81;5063399;28;20278;-54
2022/01/10 08:53:14;;;;;;;10.93;7.80;;;;;;;4.53;100.00;101391.47;5051102;28;20314;-52
2022/01/10 08:55:41;;;;;;;13.90;9.13;;;;;;;4.58;100.00;101395.09;5059692;28;20320;-52
2022/01/10 08:58:08;;;;;;;13.43;8.80;;;;;;;4.62;100.00;101407.34;5036850;28;20283;-54
2022/01/10 09:00:34;;;;;;;15.20;8.83;;;;;;;4.67;100.00;101413.63;5039308;28;20224;-52
2022/01/10 09:03:02;;;;;;;18.73;9.23;;;;;;;4.63;100.00;101419.53;5061735;28;20235;-52
2022/01/10 09:05:29;;;;;;;17.17;9.23;;;;;;;4.66;100.00;101430.03;5061761;28;20280;-52
2022/01/10 09:07:58;;;;;;;14.27;8.10;;;;;;;4.65;100.00;101428.28;5060149;28;20239;-53
2022/01/10 09:10:25;;;;;;;16.20;7.70;;;;;;;4.76;100.00;101436.44;5058704;28;20607;-53
2022/01/10 09:12:52;;;;;;;14.20;8.67;;;;;;;4.70;100.00;101439.72;5060303;28;20227;-53
2022/01/10 09:15:19;;;;;;;13.33;8.87;;;;;;;4.72;100.00;101444.97;5051146;28;20263;-54
2022/01/10 09:17:45;;;;;;;14.47;8.33;;;;;;;4.79;100.00;101442.63;5048596;28;20297;-53
2022/01/10 09:20:12;;;;;;;18.57;8.00;;;;;;;4.81;100.00;101449.59;5053658;28;20260;-52
2022/01/10 09:22:38;;;;;;;15.47;7.83;;;;;;;4.84;100.00;101445.38;5045854;28;20248;-53
2022/01/10 09:25:05;;;;;;;14.77;8.07;;;;;;;4.87;100.00;101449.81;5047849;28;20288;-52
2022/01/10 09:27:32;;;;;;;15.30;8.27;;;;;;;4.92;100.00;101461.28;5054440;28;20238;-52
2022/01/10 09:29:59;;;;;;;11.03;7.47;;;;;;;4.93;100.00;101450.91;5062637;28;20250;-52
2022/01/10 09:32:26;;;;;;;12.07;8.03;;;;;;;4.98;100.00;101469.25;5052574;28;20258;-52
2022/01/10 09:34:52;;;;;;;15.20;8.53;;;;;;;4.97;100.00;101472.69;5055712;28;20223;-52
2022/01/10 09:37:18;;;;;;;12.90;8.90;;;;;;;4.99;100.00;101474.53;5042043;28;20247;-52
2022/01/10 09:39:45;;;;;;;14.63;8.83;;;;;;;5.05;100.00;101489.44;5040275;28;20244;-52
2022/01/10 09:42:12;;;;;;;13.30;9.60;;;;;;;5.06;100.00;101491.25;5056954;28;20568;-52
2022/01/10 09:44:39;;;;;;;13.47;9.30;;;;;;;5.03;100.00;101489.41;5055422;28;20235;-51
2022/01/10 09:47:07;;;;;;;17.63;9.53;;;;;;;5.04;100.00;101490.28;5056410;28;20235;-52
2022/01/10 09:49:33;;;;;;;11.53;8.57;;;;;;;5.07;100.00;101499.94;5058600;28;20273;-52
2022/01/10 09:51:59;;;;;;;22.77;10.93;;;;;;;5.06;100.00;101499.03;5060255;28;20295;-52
2022/01/10 09:54:26;;;;;;;18.17;11.17;;;;;;;5.07;100.00;101503.41;5061342;28;20242;-52
2022/01/10 09:56:52;;;;;;;13.47;9.30;;;;;;;5.15;100.00;101514.06;5062374;28;20669;-52
2022/01/10 09:59:18;;;;;;;18.00;8.47;;;;;;;5.22;100.00;101516.03;5050800;28;20813;-52
2022/01/10 10:01:48;;;;;;;9.17;7.17;;;;;;;5.21;100.00;101527.31;5044840;28;20258;-52
2022/01/10 10:04:16;;;;;;;10.83;7.53;;;;;;;5.11;100.00;101526.09;5062078;28;20711;-54
2022/01/10 10:06:42;;;;;;;17.87;8.77;;;;;;;5.05;100.00;101530.22;5056441;28;20738;-53
2022/01/10 10:09:10;;;;;;;14.90;9.80;;;;;;;5.03;100.00;101533.66;5058076;28;20301;-52
2022/01/10 10:11:42;;;;;;;15.83;8.97;;;;;;;4.99;100.00;101542.19;5045638;28;20774;-53
2022/01/10 10:14:10;;;;;;;18.33;8.97;;;;;;;5.00;100.00;101548.28;5058488;28;20734;-52
2022/01/10 10:16:39;;;;;;;13.10;7.87;;;;;;;4.93;100.00;101551.50;5053294;28;20227;-52
2022/01/10 10:19:06;;;;;;;16.97;8.07;;;;;;;4.92;100.00;101552.34;5040562;28;20229;-53
2022/01/10 10:21:34;;;;;;;15.43;9.03;;;;;;;5.01;100.00;101565.66;5059312;28;20270;-52
2022/01/10 10:24:04;;;;;;;13.70;8.83;;;;;;;5.05;100.00;101569.25;5056692;28;20292;-52
2022/01/10 10:26:30;;;;;;;17.00;8.33;;;;;;;5.05;100.00;101569.25;5050800;28;20234;-53
2022/01/10 10:28:57;;;;;;;14.93;8.97;;;;;;;4.98;100.00;101571.66;5053342;28;20320;-52
2022/01/10 10:31:25;;;;;;;19.90;8.73;;;;;;;4.98;100.00;101568.16;5050085;28;20271;-53
2022/01/10 10:33:53;;;;;;;19.87;8.70;;;;;;;5.00;100.00;101583.00;5057533;28;20249;-52
2022/01/10 10:36:19;;;;;;;12.03;8.83;;;;;;;5.10;100.00;101583.31;5044095;28;20239;-52
2022/01/10 10:38:47;;;;;;;15.77;8.73;;;;;;;5.08;100.00;101585.84;5053568;28;20261;-52
2022/01/10 10:41:14;;;;;;;15.03;9.27;;;;;;;5.08;100.00;101585.84;5044505;28;20231;-53
2022/01/10 10:43:42;;;;;;;15.27;9.63;;;;;;;5.13;100.00;101599.94;5056391;28;20227;-52
2022/01/10 10:46:12;;;;;;;12.67;8.00;;;;;;;5.08;100.00;101596.25;5051120;28;20278;-52
2022/01/10 10:48:39;;;;;;;10.87;8.77;;;;;;;5.13;100.00;101599.94;5051071;28;20239;-53
2022/01/10 10:51:05;;;;;;;12.20;8.93;;;;;;;5.12;100.00;101600.75;5050923;28;20227;-52
2022/01/10 10:53:32;;;;;;;13.30;7.97;;;;;;;5.10;100.00;101605.03;5059024;28;20227;-52
2022/01/10 10:56:01;;;;;;;10.57;8.97;;;;;;;5.14;100.00;101609.50;5049841;28;20252;-52
2022/01/10 10:58:28;;;;;;;13.03;7.53;;;;;;;5.17;100.00;101613.94;5059187;28;20266;-52
2022/01/10 11:00:55;;;;;;;23.47;10.17;;;;;;;5.18;100.00;101613.97;5054838;28;20273;-53
2022/01/10 11:03:22;;;;;;;13.83;9.37;;;;;;;5.19;100.00;101622.66;5038909;28;20236;-53
2022/01/10 11:05:49;;;;;;;13.43;8.10;;;;;;;5.21;100.00;101621.91;5061100;28;20223;-53
2022/01/10 11:08:15;;;;;;;21.67;10.47;;;;;;;5.17;100.00;101630.44;5038780;28;20244;-52
2022/01/10 11:10:42;;;;;;;15.97;9.17;;;;;;;5.13;100.00;101625.97;5048544;28;20220;-53
2022/01/10 11:13:11;;;;;;;17.07;9.17;;;;;;;5.10;100.00;101628.44;5058508;28;20301;-54
2022/01/10 11:15:38;;;;;;;12.57;8.77;;;;;;;5.12;100.00;101628.50;5057725;28;20338;-52
2022/01/10 11:18:06;;;;;;;19.67;10.00;;;;;;;5.28;100.00;101636.03;5047353;28;20235;-52
2022/01/10 11:20:40;;;;;;;13.70;7.70;;;;;;;5.22;100.00;101636.69;5051015;28;20365;-54
2022/01/10 11:23:08;;;;;;;20.87;9.23;;;;;;;5.26;100.00;101640.28;5054096;28;20222;-52
2022/01/10 11:25:36;;;;;;;12.33;8.10;;;;;;;5.25;100.00;101644.59;5053992;28;20235;-51
2022/01/10 11:28:05;;;;;;;9.90;8.07;;;;;;;5.30;100.00;101651.69;5037907;28;20239;-52